KDED/DED METAR and TAF weather

Enter ICAO airport designator
Station Type Date Time Source
KDED METAR 2019/06/16 06:55 UTC NOAA

KDED 160655Z AUTO 00000KT 10SM CLR 23/22 A3003 RMK AO2


Station Type Date Time Source
KDED Decoded METAR 2019/06/16 06:55 UTC NOAA

Station name not available
Jun 16, 2019 - 02:55 AM EDT / 2019.06.16 0655 UTC
Wind: Calm:0
Visibility: 10 mile(s):0
Sky conditions: clear
Temperature: 73 F (23 C)
Dew Point: 71 F (22 C)
Relative Humidity: 94%
Pressure (altimeter): 30.03 in. Hg (1016 hPa)
ob: KDED 160655Z AUTO 00000KT 10SM CLR 23/22 A3003 RMK AO2
cycle: 7

Station Type Date Time Source
KDED TAF UTC NOAA

Error!

Example: see airport list